This is the latest recevied weather packets stored in our database for station/object W4KBW. If no packets are shown the sender has not sent any weather packets the latest 10 day(s).
| Time | Temp. | Humidity | Pressure | Rain* | Wind** | Luminosity | Snow |
|---|---|---|---|---|---|---|---|
| 1777815892 | 20° C | 100% | 1016.4 hPa | 0 mm | - | - | - |
| 1777814962 | 19.44° C | 100% | 1016.1 hPa | 0 mm | - | - | - |
| 1777814331 | 18.89° C | 100% | 1016 hPa | 0 mm | - | - | - |
| 1777814032 | 18.89° C | 100% | 1016 hPa | 0 mm | - | - | - |
| 1777813102 | 18.89° C | 100% | 1015.9 hPa | 0 mm | - | - | - |
| 1777812172 | 18.89° C | 100% | 1015.8 hPa | 0 mm | - | - | - |
| 1777811499 | 18.33° C | 100% | 1015.6 hPa | 0 mm | - | - | - |
| 1777811272 | 18.33° C | 100% | 1015.6 hPa | 0 mm | - | - | - |
| 1777810372 | 18.33° C | 100% | 1015.4 hPa | 0 mm | - | - | - |
| 1777809472 | 18.33° C | 100% | 1015.3 hPa | 0 mm | - | - | - |
| 1777808572 | 17.78° C | 100% | 1015 hPa | 0 mm | - | - | - |
| 1777807642 | 17.78° C | 100% | 1015 hPa | 0 mm | - | - | - |
| 1777807096 | 17.78° C | 100% | 1015 hPa | 0 mm | - | - | - |
| 1777806742 | 17.78° C | 100% | 1015 hPa | 0 mm | - | - | - |
| 1777806197 | 17.78° C | 100% | 1014.9 hPa | 0 mm | - | - | - |
| 1777805842 | 17.78° C | 100% | 1014.9 hPa | 0 mm | - | - | - |
| 1777805106 | 17.78° C | 100% | 1014.9 hPa | 0 mm | - | - | - |
| 1777804942 | 17.78° C | 100% | 1014.9 hPa | 0 mm | - | - | - |
| 1777804012 | 17.78° C | 100% | 1014.6 hPa | 0 mm | - | - | - |
| 1777803082 | 17.78° C | 100% | 1014.3 hPa | 0 mm | - | - | - |
| 1777802152 | 17.78° C | 100% | 1014.4 hPa | 0 mm | - | - | - |
| 1777801598 | 17.78° C | 100% | 1014.4 hPa | 0 mm | - | - | - |
| 1777801222 | 17.78° C | 100% | 1014.4 hPa | 0 mm | - | - | - |
| 1777800564 | 18.33° C | 100% | 1014.4 hPa | 0 mm | - | - | - |
| 1777800292 | 18.33° C | 100% | 1014.4 hPa | 0 mm | - | - | - |
* Rain latest hour (hover to see other rain measurements)
** Current wind speed in m/s (hover to see current wind gust speed)